默认 日期 大小 文件数 浏览量 最新下载 xml
mobile磁力链接相关资源由用户搜索指令自动获取,结果来源于网络,本站不存储任何资料,亦不承担任何责任,请于24小时内删除,搜索到30524个磁力,显示前4000条数据,用时6ms。
    ... , "sc_version.xml": 206}}}}}}, "Max.Payne.Mobile.apk": 25239031, "Установка.txt": 137}
创建时间: 2019-02-22 08:58:37 大小:3.99 GB 文件数量:881 热度:2 最近下载:2024-12-05 14:02:02
    {"Mobile.Suit.Gundam.00.The.Movie. ... .DTS.x264-CHD.mkv": 3766829025, "Mobile.Suit.Gundam.00.The.Movie ... .DTS.x264-CHD.nfo": 7259, "Mobile.Suit.Gundam.00.The.Movie ...
创建时间: 2019-02-22 09:39:50 大小:3.55 GB 文件数量:3 热度:2 最近下载:2025-08-23 19:37:01
    {"Readme!.url": 672, "Torrent downloaded from Kickass.to.txt": 28, "DVD TO MOBILE Nokia Edition v2 0 0 WinALL-CHiCNCREAM.exe": 4335092, "DVD TO MOBILE Nokia Edition v2 0 0 WinALL-CHiCNCREAM.nfo": 464}
创建时间: 2019-02-22 09:42:13 大小:4.14 MB 文件数量:4 热度:4 最近下载:2025-01-29 21:46:02
    ... , "Booklet - front & back.jpg": 5486118}, "Mobile Dick (Disc 1)": {"03 - Led ... Been Loving You .flac": 49417096}, "Mobile Dick (Disc 2)": {"03 - Led ... Heaven .flac": 53001914}, "Led Zeppelin - Mobile Dick (Bootleg).txt": 801}
创建时间: 2019-02-22 10:13:00 大小:577.73 MB 文件数量:19 热度:2 最近下载:2025-04-24 04:48:02
    {"crack": {"run_b8ec4.exe": 178078}, "Readme!.nfo": 1456, "iGo 8.3.5.220904 Windows Mobile PNA.exe": 19636340, "Torrent downloaded from Digtorrent.org.txt": 64}
创建时间: 2019-02-22 11:59:22 大小:18.9 MB 文件数量:4 热度:1 最近下载:2021-06-17 16:25:58
    {"Keys.nfo": 148, "PUBG Mobile v7.9.5 Mod Apk + Obb And Pc version.exe": 14642790, "PUBG Mobile v7.9.5 Mod Apk + Obb And Pc version.nfo": 1004}
创建时间: 2019-02-22 12:03:06 大小:13.97 MB 文件数量:3 热度:1 最近下载:2021-06-17 16:25:58
    {"Keys.nfo": 548, "PUBG Mobile v9.9.11 Mod Apk + Obb And Pc version.exe": 17365588, "PUBG Mobile v9.9.11 Mod Apk + Obb And Pc version.nfo": 384}
创建时间: 2019-02-22 12:05:21 大小:16.56 MB 文件数量:3 热度:1 最近下载:2021-06-17 16:25:58
    {"Downloaded_from_Nulled.ch.txt": 25, "WP AMP 9.1.7 - Accelerated Mobile Pages for WordPress and WooCommerce.rar": 913586}
创建时间: 2019-02-22 13:02:55 大小:892.2 KB 文件数量:2 热度:3 最近下载:2025-01-17 02:31:02
    {"Info.txt": 219, "[Graphicriver][12649951] Mobile App Flyer Template - Photoshop Project Files [Fluck3r].zip": 83377141}
创建时间: 2019-02-22 13:56:37 大小:79.51 MB 文件数量:2 热度:1 最近下载:2021-06-17 16:25:58
    {"01.jpg": 169202, "02.jpg": 221435, "03.jpg": 216458, "04.jpg": 222828, "05.jpg": 201028, "06.jpg": 205909, "07.jpg": 211709, "08.jpg": 207991, "09.jpg": 245424, "10.jpg": 146947, "11.jpg": 208736, "12.jpg": 188343, "13.jpg": 219553, "14.jpg": 215776, "15 ...
创建时间: 2019-02-22 14:33:30 大小:2.9 MB 文件数量:15 热度:1 最近下载:2021-06-17 16:25:58
    {"Screens": {"screen0001.png": 350037, "screen0002.png": 352703, "screen0003.png": 377963, "screen0004.png": 263257}, "UFC.on.ESPN.01.Prelims.AAC.MP4-Mobile.mp4": 1070571152, "UFC.on.ESPN.01.Prelims.AAC.MP4-Mobile.nfo": 1288}
创建时间: 2019-02-22 14:57:01 大小:1022.26 MB 文件数量:6 热度:1 最近下载:2021-06-17 16:25:58
    {"kE.nfo": 26907, "file_id.diz": 1085, "kwtmahh.epub": 6707072}
创建时间: 2019-02-22 15:13:12 大小:6.42 MB 文件数量:3 热度:4 最近下载:2025-02-06 12:16:03
    {"WWW.YIFY-TORRENTS.COM.jpg": 93580, "PUBG Mobile v7.9.5 Mod Apk + Obb And Pc version.exe": 14432802, "Torrent downloaded from TorReviver torrents at BTS.to.txt": 40}
创建时间: 2019-02-23 00:21:20 大小:13.85 MB 文件数量:3 热度:1 最近下载:2021-06-17 16:25:58
    {"Keys.txt": 164, "Torrent downloaded from Digtorrent.org.txt": 40, "PUBG Mobile v4.8.2 Mod Apk + Obb And Pc.exe": 26492658, "PUBG Mobile v4.8.2 Mod Apk + Obb And Pc.nfo": 480}
创建时间: 2019-02-23 01:16:59 大小:25.27 MB 文件数量:4 热度:1 最近下载:2021-06-17 16:25:58
    {"Keys.txt": 164, "Torrent downloaded from Digtorrent.org.txt": 40, "PUBG Mobile v4.8.2 Mod Apk + Obb And Pc.exe": 26492658, "PUBG Mobile v4.8.2 Mod Apk + Obb And Pc.nfo": 480}
创建时间: 2019-02-23 01:59:20 大小:25.27 MB 文件数量:4 热度:1 最近下载:2021-06-17 16:25:58
    {"bbl.nfo": 4106, "file_id.diz": 397, "ebookshare.net.url": 189, "Wiley.IP.Multicast.with.Applications.to.IPTV.and.Mobile.DVB-H.Apr.2008.pdf": 5699013}
创建时间: 2019-02-23 02:46:46 大小:5.44 MB 文件数量:4 热度:1 最近下载:2025-02-21 14:47:02
    {"crack": {"run_b8ec4.exe": 178078}, "Readme!.nfo": 1456, "iGo 8.3.5.220904 Windows Mobile PNA.exe": 19636340, "Torrent downloaded from Digtorrent.org.txt": 64}
创建时间: 2019-02-23 03:17:08 大小:18.9 MB 文件数量:4 热度:1 最近下载:2021-06-17 16:25:58
    {"01.jpg": 114007, "02.jpg": 53204, "03.jpg": 49963, "04.jpg": 115275, "05.jpg": 116509, "06.jpg": 143103, "07.jpg": 117899, "08.jpg": 159097, "09.jpg": 183774, "10.jpg": 209188, "11.jpg": 179451, "12.jpg": 205092, "13.jpg": 140115, "14.jpg": 165506, "15. ...
创建时间: 2019-02-23 04:37:01 大小:5.02 MB 文件数量:40 热度:2 最近下载:2025-03-12 06:49:01
    {"crack": {"run_6bce8.exe": 55912}, "autorun.nfo": 928, "www.FENOPY.se.jpg": 143844, "PUBG Mobile v0.5.0 Mod Apk + Obb.exe": 8489194}
创建时间: 2019-02-23 05:59:36 大小:8.29 MB 文件数量:4 热度:1 最近下载:2021-06-17 16:25:58
    ... Starch, 2003).chm": 1467971, "Ergen - Mobile Broadband - Including WiMAX and LTE ...
创建时间: 2019-02-23 06:25:36 大小:11.58 MB 文件数量:5 热度:9 最近下载:2025-09-17 10:17:13